M I D A S
Marine Information and Data Acquisition System
Tripno 1604 of the Zeeleeuw from 2008-09-10 06:20:15 to 2008-09-10 14:14:11
Back to CruiseResearch ActivitiesStationsMapUnderway DataData graphs

EquipmentUnitsComment
TimeDGPSUTC
LatitudeDGPSDM.mWGS84
LongitudeDGPSDM.mWGS84
HeadingGyrodeg 
SOGDGPSknotsSpeed over ground
COGDGPSdegCourse over ground
DepthEcho soundermeters200 kHz
Missing or incorrect values are displayed as -999
Navigation data collected by the RV Zeeleeuw from 2008-09-10 06:21:14 to 2008-09-10 12:35:52
                                                                                    Next 1000 lines
Time Latitude Longitude Heading SOG COG Depth
2008-09-10 06:21:24 51°13.626 2°56.048 124.6 0.2 338 -999
2008-09-10 06:21:30 51°13.627 2°56.048 124.6 -999 320 9.5
2008-09-10 06:21:35 51°13.627 2°56.047 124.6 -999 52 9.5
2008-09-10 06:21:40 51°13.627 2°56.047 124.6 -999 355 9.5
2008-09-10 06:21:45 51°13.627 2°56.047 124.6 -999 5 9.5
2008-09-10 06:21:50 51°13.626 2°56.047 124.6 -999 331 9.5
2008-09-10 06:21:55 51°13.626 2°56.047 124.6 -999 324 9.5
2008-09-10 06:22:00 51°13.625 2°56.047 124.6 -999 358 9.5
2008-09-10 06:22:05 51°13.625 2°56.047 124.7 -999 -999 9.5
2008-09-10 06:22:10 51°13.624 2°56.047 124.7 -999 9 9.5
2008-09-10 06:22:15 51°13.624 2°56.047 124.7 -999 350 9.5
2008-09-10 06:22:20 51°13.624 2°56.047 124.7 -999 206 9.5
2008-09-10 06:22:25 51°13.624 2°56.047 124.7 -999 118 9.5
2008-09-10 06:22:30 51°13.624 2°56.047 124.7 -999 46 9.5
2008-09-10 06:22:35 51°13.624 2°56.047 124.7 -999 17 9.5
2008-09-10 06:22:40 51°13.624 2°56.047 124.7 -999 351 9.5
2008-09-10 06:22:45 51°13.624 2°56.047 124.7 -999 359 9.5
2008-09-10 06:22:50 51°13.624 2°56.047 124.7 -999 200 9.5
2008-09-10 06:22:55 51°13.624 2°56.047 124.7 -999 331 9.5
2008-09-10 06:23:00 51°13.624 2°56.047 124.7 -999 125 9.5
2008-09-10 06:23:05 51°13.624 2°56.047 124.7 -999 12 9.6
2008-09-10 06:23:10 51°13.624 2°56.047 124.7 -999 258 9.5
2008-09-10 06:23:15 51°13.625 2°56.047 124.7 -999 41 9.6
2008-09-10 06:23:20 51°13.625 2°56.047 124.7 -999 240 9.5
2008-09-10 06:23:25 51°13.625 2°56.047 124.7 -999 20 9.4
2008-09-10 06:23:30 51°13.625 2°56.047 124.7 -999 68 9.5
2008-09-10 06:23:35 51°13.625 2°56.047 124.6 -999 337 -999
2008-09-10 06:23:40 51°13.625 2°56.047 124.5 -999 65 9.5
2008-09-10 06:23:45 51°13.625 2°56.047 124.3 -999 54 9.6
2008-09-10 06:23:50 51°13.625 2°56.047 124.3 -999 79 9.5
2008-09-10 06:23:55 51°13.625 2°56.047 124.1 -999 203 9.5
2008-09-10 06:24:00 51°13.625 2°56.047 124 -999 272 9.5
2008-09-10 06:24:05 51°13.625 2°56.047 124 -999 225 9.5
2008-09-10 06:24:10 51°13.625 2°56.047 124 -999 6 9.4
2008-09-10 06:24:15 51°13.625 2°56.047 124 -999 51 9.4
2008-09-10 06:24:20 51°13.625 2°56.047 123.9 -999 184 9.5
2008-09-10 06:24:25 51°13.625 2°56.047 123.9 -999 201 9.4
2008-09-10 06:24:30 51°13.625 2°56.047 123.9 -999 121 9.5
2008-09-10 06:24:35 51°13.625 2°56.047 123.9 -999 101 9.5
2008-09-10 06:24:40 51°13.625 2°56.047 123.9 -999 279 9.5
2008-09-10 06:24:45 51°13.625 2°56.047 123.9 -999 98 9.4
2008-09-10 06:24:50 51°13.625 2°56.048 123.9 -999 64 9.5
2008-09-10 06:24:55 51°13.625 2°56.047 123.9 0.1 352 9.4
2008-09-10 06:25:00 51°13.625 2°56.047 123.9 -999 292 9.4
2008-09-10 06:25:05 51°13.625 2°56.047 123.9 -999 1 9.4
2008-09-10 06:25:10 51°13.625 2°56.047 123.9 -999 1 9.4
2008-09-10 06:25:15 51°13.625 2°56.047 123.9 -999 186 9.5
2008-09-10 06:25:20 51°13.625 2°56.047 123.9 -999 282 9.5
2008-09-10 06:25:25 51°13.625 2°56.047 123.9 -999 62 9.5
2008-09-10 06:25:31 51°13.625 2°56.047 124 -999 13 9.5
2008-09-10 06:25:35 51°13.625 2°56.047 124 -999 359 9.4
2008-09-10 06:25:40 51°13.625 2°56.047 124 -999 291 9.5
2008-09-10 06:25:45 51°13.625 2°56.047 124.1 -999 47 9.5
2008-09-10 06:25:50 51°13.625 2°56.047 124.1 0.1 59 9.5
2008-09-10 06:25:55 51°13.625 2°56.047 124.2 -999 56 9.5
2008-09-10 06:26:00 51°13.625 2°56.047 124.2 -999 163 9.5
2008-09-10 06:26:05 51°13.625 2°56.047 124.2 -999 184 9.4
2008-09-10 06:26:10 51°13.625 2°56.047 124.2 -999 71 9.5
2008-09-10 06:26:15 51°13.625 2°56.047 124.2 -999 25 9.4
2008-09-10 06:26:20 51°13.625 2°56.047 124.2 -999 14 9.4
2008-09-10 06:26:25 51°13.625 2°56.047 124.2 -999 61 9.4
2008-09-10 06:26:29 51°13.625 2°56.047 124.2 -999 95 9.5
2008-09-10 06:26:34 51°13.625 2°56.047 124.2 -999 95 9.5
2008-09-10 06:26:39 51°13.625 2°56.047 124.2 -999 89 9.5
2008-09-10 06:26:44 51°13.625 2°56.047 124.2 0.1 4 9.5
2008-09-10 06:26:50 51°13.625 2°56.047 124.2 -999 300 9.5
2008-09-10 06:26:55 51°13.625 2°56.047 124.2 -999 66 9.5
2008-09-10 06:27:00 51°13.625 2°56.047 124.2 -999 88 9.5
2008-09-10 06:27:05 51°13.625 2°56.047 124.2 -999 355 9.4
2008-09-10 06:27:10 51°13.625 2°56.047 124.2 -999 25 9.4
2008-09-10 06:27:14 51°13.625 2°56.047 124.2 -999 338 9.5
2008-09-10 06:27:19 51°13.625 2°56.047 124.2 -999 326 9.5
2008-09-10 06:27:24 51°13.625 2°56.046 124.2 -999 300 9.5
2008-09-10 06:27:30 51°13.624 2°56.047 124.2 -999 219 9.5
2008-09-10 06:27:35 51°13.624 2°56.047 124.2 -999 97 9.5
2008-09-10 06:27:40 51°13.624 2°56.047 124.4 -999 229 9.5
2008-09-10 06:27:45 51°13.624 2°56.047 124.4 -999 214 9.5
2008-09-10 06:27:50 51°13.624 2°56.047 124.4 -999 20 9.5
2008-09-10 06:27:54 51°13.624 2°56.047 124.4 -999 280 9.5
2008-09-10 06:27:59 51°13.624 2°56.047 124.4 -999 282 9.5
2008-09-10 06:28:04 51°13.624 2°56.047 124.4 -999 276 9.5
2008-09-10 06:28:10 51°13.624 2°56.047 124.4 -999 271 9.5
2008-09-10 06:28:15 51°13.624 2°56.047 124.4 -999 170 9.5
2008-09-10 06:28:20 51°13.624 2°56.047 124.4 -999 33 9.5
2008-09-10 06:28:25 51°13.624 2°56.047 124.4 -999 58 9.5
2008-09-10 06:28:30 51°13.624 2°56.047 124.4 -999 147 9.5
2008-09-10 06:28:35 51°13.624 2°56.047 124.4 -999 14 9.5
2008-09-10 06:28:40 51°13.624 2°56.047 124.4 -999 225 9.5
2008-09-10 06:28:45 51°13.624 2°56.047 124.4 -999 93 9.5
2008-09-10 06:28:50 51°13.624 2°56.047 124.3 -999 82 9.4
2008-09-10 06:28:55 51°13.624 2°56.047 124.3 -999 31 9.5
2008-09-10 06:29:00 51°13.624 2°56.047 124.1 -999 8 9.5
2008-09-10 06:29:05 51°13.624 2°56.047 124.1 -999 296 9.5
2008-09-10 06:29:10 51°13.624 2°56.047 124 -999 126 9.5
2008-09-10 06:29:15 51°13.624 2°56.047 124 -999 291 9.4
2008-09-10 06:29:20 51°13.624 2°56.047 124 -999 273 9.5
2008-09-10 06:29:25 51°13.624 2°56.047 124 -999 32 9.4
2008-09-10 06:29:30 51°13.625 2°56.047 124 -999 20 9.5
2008-09-10 06:29:35 51°13.625 2°56.047 124 -999 314 9.4
2008-09-10 06:29:40 51°13.625 2°56.047 124 -999 217 9.5
2008-09-10 06:29:45 51°13.625 2°56.047 124 -999 190 9.4
2008-09-10 06:29:50 51°13.625 2°56.047 124 -999 38 9.4
2008-09-10 06:29:55 51°13.625 2°56.047 124 -999 55 9.5
2008-09-10 06:30:00 51°13.625 2°56.047 124 -999 65 9.5
2008-09-10 06:30:05 51°13.624 2°56.047 124 -999 136 9.5
2008-09-10 06:30:10 51°13.624 2°56.047 124 -999 104 9.4
2008-09-10 06:30:15 51°13.624 2°56.047 124 -999 218 9.4
2008-09-10 06:30:20 51°13.624 2°56.047 124 -999 185 9.5
2008-09-10 06:30:25 51°13.624 2°56.047 124 -999 258 9.4
2008-09-10 06:30:30 51°13.624 2°56.047 124 -999 345 9.5
2008-09-10 06:30:35 51°13.624 2°56.047 124 -999 158 9.5
2008-09-10 06:30:40 51°13.624 2°56.047 124 -999 52 9.4
2008-09-10 06:30:45 51°13.624 2°56.047 124 -999 137 9.5
2008-09-10 06:30:50 51°13.624 2°56.047 124 -999 136 9.5
2008-09-10 06:30:55 51°13.624 2°56.047 124 -999 331 9.5
2008-09-10 06:31:00 51°13.624 2°56.047 124 -999 97 9.5
2008-09-10 06:31:05 51°13.624 2°56.047 124 -999 165 9.5
2008-09-10 06:31:10 51°13.624 2°56.047 124 -999 65 9.5
2008-09-10 06:31:15 51°13.624 2°56.047 124 -999 349 9.5
2008-09-10 06:31:20 51°13.624 2°56.047 124 -999 271 9.5
2008-09-10 06:31:25 51°13.624 2°56.047 124 -999 228 9.5
2008-09-10 06:31:30 51°13.624 2°56.048 124 -999 41 9.5
2008-09-10 06:31:35 51°13.624 2°56.047 123.9 -999 333 9.5
2008-09-10 06:31:40 51°13.624 2°56.047 123.9 -999 199 9.5
2008-09-10 06:31:45 51°13.624 2°56.047 123.8 -999 331 9.5
2008-09-10 06:31:50 51°13.624 2°56.047 123.8 -999 168 9.5
2008-09-10 06:31:55 51°13.624 2°56.047 123.7 -999 39 9.5
2008-09-10 06:32:00 51°13.624 2°56.047 123.7 -999 105 9.5
2008-09-10 06:32:05 51°13.624 2°56.047 123.7 -999 180 9.5
2008-09-10 06:32:10 51°13.624 2°56.047 123.8 -999 242 9.5
2008-09-10 06:32:15 51°13.624 2°56.047 123.8 -999 218 9.5
2008-09-10 06:32:20 51°13.624 2°56.047 123.9 -999 14 9.5
2008-09-10 06:32:25 51°13.624 2°56.047 124 -999 31 9.5
2008-09-10 06:32:30 51°13.624 2°56.047 124 -999 73 9.5
2008-09-10 06:32:35 51°13.624 2°56.047 124 -999 53 9.5
2008-09-10 06:32:40 51°13.624 2°56.047 124 -999 261 9.5
2008-09-10 06:32:45 51°13.624 2°56.047 124 -999 189 9.5
2008-09-10 06:32:50 51°13.624 2°56.047 123.9 -999 336 9.5
2008-09-10 06:32:55 51°13.624 2°56.047 123.7 -999 16 9.5
2008-09-10 06:33:00 51°13.624 2°56.047 123.6 -999 282 9.5
2008-09-10 06:33:05 51°13.624 2°56.048 123.4 -999 1 9.5
2008-09-10 06:33:10 51°13.624 2°56.048 123.4 -999 327 9.5
2008-09-10 06:33:15 51°13.624 2°56.048 123.4 -999 31 9.5
2008-09-10 06:33:20 51°13.624 2°56.048 123.4 -999 141 9.5
2008-09-10 06:33:25 51°13.624 2°56.048 123.5 -999 203 9.5
2008-09-10 06:33:30 51°13.624 2°56.048 123.6 -999 162 9.5
2008-09-10 06:33:35 51°13.624 2°56.047 123.7 -999 49 9.5
2008-09-10 06:33:40 51°13.624 2°56.047 123.7 -999 289 9.5
2008-09-10 06:33:45 51°13.624 2°56.047 123.7 -999 202 9.5
2008-09-10 06:33:50 51°13.624 2°56.047 123.7 -999 99 9.5
2008-09-10 06:33:55 51°13.624 2°56.047 123.7 -999 161 9.5
2008-09-10 06:34:00 51°13.624 2°56.047 123.7 -999 272 9.5
2008-09-10 06:34:05 51°13.624 2°56.047 123.7 -999 320 9.5
2008-09-10 06:34:10 51°13.624 2°56.047 123.7 -999 331 9.5
2008-09-10 06:34:15 51°13.624 2°56.047 123.7 -999 7 9.5
2008-09-10 06:34:20 51°13.624 2°56.047 123.6 0.1 15 9.5
2008-09-10 06:34:25 51°13.624 2°56.047 123.5 -999 276 9.5
2008-09-10 06:34:31 51°13.624 2°56.047 123.4 0.1 179 9.7
2008-09-10 06:34:35 51°13.624 2°56.048 123.3 -999 49 9.5
2008-09-10 06:34:40 51°13.624 2°56.048 123.3 -999 187 9.5
2008-09-10 06:34:45 51°13.624 2°56.048 123.3 -999 92 9.5
2008-09-10 06:34:50 51°13.624 2°56.048 123.3 -999 191 9.5
2008-09-10 06:34:55 51°13.624 2°56.047 123.3 -999 16 9.5
2008-09-10 06:35:00 51°13.624 2°56.047 123.4 -999 155 9.5
2008-09-10 06:35:05 51°13.624 2°56.047 123.6 -999 11 9.5
2008-09-10 06:35:10 51°13.624 2°56.047 123.6 -999 202 9.5
2008-09-10 06:35:15 51°13.624 2°56.047 123.6 -999 37 9.5
2008-09-10 06:35:20 51°13.624 2°56.047 123.6 -999 270 9.5
2008-09-10 06:35:25 51°13.624 2°56.047 123.6 -999 7 9.5
2008-09-10 06:35:30 51°13.624 2°56.047 123.6 -999 260 9.5
2008-09-10 06:35:35 51°13.624 2°56.047 123.6 0.1 170 9.5
2008-09-10 06:35:40 51°13.624 2°56.047 123.6 -999 151 9.5
2008-09-10 06:35:45 51°13.624 2°56.047 123.6 -999 335 9.5
2008-09-10 06:35:50 51°13.624 2°56.047 123.6 -999 54 9.5
2008-09-10 06:35:55 51°13.624 2°56.047 123.6 -999 351 9.5
2008-09-10 06:36:00 51°13.624 2°56.047 123.6 -999 24 9.5
2008-09-10 06:36:05 51°13.623 2°56.047 123.6 -999 47 9.5
2008-09-10 06:36:10 51°13.623 2°56.047 123.6 0.1 10 9.5
2008-09-10 06:36:15 51°13.623 2°56.047 123.7 -999 171 9.5
2008-09-10 06:36:20 51°13.623 2°56.047 123.7 -999 216 9.5
2008-09-10 06:36:25 51°13.623 2°56.047 123.7 -999 249 9.5
2008-09-10 06:36:30 51°13.623 2°56.047 123.7 -999 338 9.5
2008-09-10 06:36:35 51°13.623 2°56.047 123.7 -999 327 9.5
2008-09-10 06:36:40 51°13.623 2°56.047 123.7 -999 152 9.5
2008-09-10 06:36:45 51°13.623 2°56.047 123.6 -999 214 9.5
2008-09-10 06:36:50 51°13.623 2°56.047 123.5 -999 258 9.5
2008-09-10 06:36:55 51°13.623 2°56.047 123.4 -999 74 9.5
2008-09-10 06:37:00 51°13.623 2°56.047 123.4 -999 201 9.5
2008-09-10 06:37:05 51°13.623 2°56.047 123.4 -999 237 9.5
2008-09-10 06:37:10 51°13.623 2°56.047 123.4 -999 185 9.5
2008-09-10 06:37:15 51°13.623 2°56.047 123.4 -999 47 9.5
2008-09-10 06:37:20 51°13.623 2°56.047 123.6 -999 338 9.5
2008-09-10 06:37:25 51°13.623 2°56.047 123.7 -999 336 9.5
2008-09-10 06:37:30 51°13.623 2°56.047 123.7 -999 359 9.5
2008-09-10 06:37:35 51°13.623 2°56.047 123.7 -999 338 9.5
2008-09-10 06:37:40 51°13.623 2°56.047 123.6 -999 304 9.5
2008-09-10 06:37:45 51°13.623 2°56.047 123.5 -999 4 9.5
2008-09-10 06:37:50 51°13.623 2°56.047 123.4 -999 222 9.5
2008-09-10 06:37:55 51°13.623 2°56.047 123.3 -999 54 9.5
2008-09-10 06:38:00 51°13.623 2°56.047 123.3 -999 245 9.5
2008-09-10 06:38:05 51°13.623 2°56.047 123.2 -999 284 9.5
2008-09-10 06:38:10 51°13.623 2°56.047 123.2 -999 264 9.5
2008-09-10 06:38:15 51°13.623 2°56.047 123.2 -999 252 9.5
2008-09-10 06:38:20 51°13.623 2°56.047 123 -999 225 9.5
2008-09-10 06:38:25 51°13.623 2°56.047 122.9 -999 201 9.6
2008-09-10 06:38:30 51°13.623 2°56.047 122.8 -999 163 9.5
2008-09-10 06:38:35 51°13.623 2°56.047 122.8 -999 131 9.5
2008-09-10 06:38:40 51°13.623 2°56.047 122.8 0.1 198 9.5
2008-09-10 06:38:45 51°13.623 2°56.047 122.9 -999 127 9.5
2008-09-10 06:38:50 51°13.623 2°56.047 123.1 -999 149 9.5
2008-09-10 06:38:55 51°13.623 2°56.047 123.3 -999 56 9.6
2008-09-10 06:39:00 51°13.623 2°56.047 123.7 -999 338 9.5
2008-09-10 06:39:05 51°13.623 2°56.048 123.9 -999 139 9.5
2008-09-10 06:39:10 51°13.623 2°56.048 124.1 -999 83 9.5
2008-09-10 06:39:15 51°13.623 2°56.048 124.4 -999 17 9.5
2008-09-10 06:39:20 51°13.623 2°56.048 124.4 -999 291 9.5
2008-09-10 06:39:25 51°13.623 2°56.048 124.5 -999 127 9.5
2008-09-10 06:39:30 51°13.623 2°56.048 124.5 -999 132 9.5
2008-09-10 06:39:35 51°13.623 2°56.048 124.5 -999 10 9.6
2008-09-10 06:39:40 51°13.623 2°56.048 124.3 -999 -999 9.5
2008-09-10 06:39:45 51°13.623 2°56.048 124.2 -999 14 9.5
2008-09-10 06:39:50 51°13.623 2°56.047 124 -999 276 9.6
2008-09-10 06:39:55 51°13.623 2°56.048 124 -999 14 9.6
2008-09-10 06:40:00 51°13.623 2°56.047 124 -999 136 9.5
2008-09-10 06:40:05 51°13.623 2°56.047 124 0.1 152 9.5
2008-09-10 06:40:10 51°13.623 2°56.047 123.9 -999 139 9.5
2008-09-10 06:40:15 51°13.623 2°56.047 123.9 -999 237 9.5
2008-09-10 06:40:20 51°13.623 2°56.047 123.9 -999 26 9.5
2008-09-10 06:40:25 51°13.623 2°56.047 123.9 -999 9 9.5
2008-09-10 06:40:30 51°13.623 2°56.047 123.9 -999 46 9.5
2008-09-10 06:40:35 51°13.623 2°56.047 123.9 -999 49 9.5
2008-09-10 06:40:40 51°13.623 2°56.047 123.9 -999 312 9.5
2008-09-10 06:40:45 51°13.623 2°56.047 123.9 -999 352 9.5
2008-09-10 06:40:50 51°13.623 2°56.047 123.9 -999 271 9.5
2008-09-10 06:40:55 51°13.623 2°56.047 123.9 -999 251 9.5
2008-09-10 06:41:00 51°13.623 2°56.048 124 -999 113 9.5
2008-09-10 06:41:05 51°13.623 2°56.048 124.1 -999 20 9.6
2008-09-10 06:41:10 51°13.623 2°56.048 124.2 -999 68 9.6
2008-09-10 06:41:15 51°13.623 2°56.048 124.2 -999 120 9.6
2008-09-10 06:41:20 51°13.623 2°56.048 124.2 -999 332 9.5
2008-09-10 06:41:25 51°13.623 2°56.048 124.2 -999 263 9.5
2008-09-10 06:41:30 51°13.623 2°56.048 124.2 -999 233 9.5
2008-09-10 06:41:35 51°13.623 2°56.048 124.2 -999 217 9.5
2008-09-10 06:41:40 51°13.623 2°56.048 124.2 -999 19 9.6
2008-09-10 06:41:45 51°13.623 2°56.048 124.2 -999 157 9.6
2008-09-10 06:41:50 51°13.623 2°56.048 124.2 -999 53 9.6
2008-09-10 06:41:55 51°13.623 2°56.048 124.2 -999 356 9.5
2008-09-10 06:42:00 51°13.623 2°56.048 124.2 -999 141 9.5
2008-09-10 06:42:05 51°13.623 2°56.048 124.2 0.1 211 9.5
2008-09-10 06:42:10 51°13.623 2°56.048 124.2 -999 72 9.5
2008-09-10 06:42:15 51°13.623 2°56.048 124.1 -999 160 9.6
2008-09-10 06:42:20 51°13.623 2°56.048 124 -999 86 9.5
2008-09-10 06:42:25 51°13.623 2°56.048 124 -999 35 9.6
2008-09-10 06:42:30 51°13.623 2°56.048 124 0.1 344 9.6
2008-09-10 06:42:35 51°13.623 2°56.048 124 -999 156 9.5
2008-09-10 06:42:40 51°13.623 2°56.048 124 -999 169 9.5
2008-09-10 06:42:45 51°13.623 2°56.048 124 -999 173 9.6
2008-09-10 06:42:50 51°13.623 2°56.048 124 -999 26 9.5
2008-09-10 06:42:55 51°13.623 2°56.048 124 -999 232 9.5
2008-09-10 06:43:00 51°13.623 2°56.048 124 -999 63 9.6
2008-09-10 06:43:05 51°13.623 2°56.047 123.9 -999 234 9.6
2008-09-10 06:43:10 51°13.623 2°56.047 123.8 -999 202 9.5
2008-09-10 06:43:15 51°13.623 2°56.047 123.7 -999 240 9.5
2008-09-10 06:43:20 51°13.623 2°56.047 123.5 -999 323 9.6
2008-09-10 06:43:25 51°13.623 2°56.047 123.4 0.1 196 9.5
2008-09-10 06:43:31 51°13.623 2°56.047 123.4 -999 33 9.5
2008-09-10 06:43:35 51°13.623 2°56.047 123.4 -999 343 9.6
2008-09-10 06:43:40 51°13.623 2°56.047 123.4 -999 143 9.5
2008-09-10 06:43:45 51°13.623 2°56.047 123.4 -999 200 9.5
2008-09-10 06:43:50 51°13.623 2°56.047 123.4 -999 68 9.5
2008-09-10 06:43:55 51°13.623 2°56.047 123.4 -999 154 9.5
2008-09-10 06:44:00 51°13.623 2°56.047 123.4 -999 160 9.5
2008-09-10 06:44:05 51°13.623 2°56.047 123.4 -999 93 9.5
2008-09-10 06:44:10 51°13.623 2°56.047 123.4 -999 84 9.5
2008-09-10 06:44:15 51°13.623 2°56.047 123.4 -999 70 9.6
2008-09-10 06:44:20 51°13.623 2°56.047 123.4 -999 100 9.6
2008-09-10 06:44:25 51°13.623 2°56.047 123.4 -999 294 9.5
2008-09-10 06:44:30 51°13.623 2°56.047 123.5 -999 27 9.6
2008-09-10 06:44:35 51°13.623 2°56.047 123.5 -999 25 9.5
2008-09-10 06:44:40 51°13.623 2°56.047 123.7 -999 251 9.5
2008-09-10 06:44:45 51°13.623 2°56.047 123.7 -999 132 9.5
2008-09-10 06:44:50 51°13.623 2°56.047 123.9 -999 116 9.5
2008-09-10 06:44:55 51°13.623 2°56.047 123.9 -999 345 9.5
2008-09-10 06:45:00 51°13.623 2°56.047 123.9 -999 278 9.5
2008-09-10 06:45:05 51°13.623 2°56.047 123.9 0.1 165 9.5
2008-09-10 06:45:10 51°13.623 2°56.047 123.9 -999 306 9.5
2008-09-10 06:45:15 51°13.623 2°56.047 123.8 -999 33 9.5
2008-09-10 06:45:20 51°13.623 2°56.047 123.7 -999 216 9.5
2008-09-10 06:45:25 51°13.623 2°56.047 123.7 -999 231 9.5
2008-09-10 06:45:30 51°13.623 2°56.047 123.7 -999 14 9.5
2008-09-10 06:45:35 51°13.623 2°56.047 123.7 -999 105 9.6
2008-09-10 06:45:40 51°13.623 2°56.047 123.7 -999 210 9.6
2008-09-10 06:45:45 51°13.623 2°56.047 123.8 -999 262 9.6
2008-09-10 06:45:50 51°13.623 2°56.047 123.8 -999 285 9.5
2008-09-10 06:45:55 51°13.623 2°56.047 123.9 -999 155 9.6
2008-09-10 06:46:00 51°13.623 2°56.047 123.9 -999 192 9.5
2008-09-10 06:46:05 51°13.624 2°56.047 124 -999 327 9.5
2008-09-10 06:46:10 51°13.624 2°56.047 124 -999 286 9.6
2008-09-10 06:46:15 51°13.623 2°56.047 124 -999 62 9.5
2008-09-10 06:46:20 51°13.623 2°56.047 124.1 -999 313 9.6
2008-09-10 06:46:25 51°13.623 2°56.047 124.1 0.1 337 9.5
2008-09-10 06:46:30 51°13.623 2°56.047 124.1 -999 193 9.5
2008-09-10 06:46:35 51°13.624 2°56.047 124.1 -999 12 9.6
2008-09-10 06:46:40 51°13.624 2°56.047 124.1 -999 180 9.5
2008-09-10 06:46:45 51°13.623 2°56.047 124.1 0.1 185 9.5
2008-09-10 06:46:50 51°13.623 2°56.047 124 -999 172 9.5
2008-09-10 06:46:55 51°13.624 2°56.047 124 0.1 191 9.6
2008-09-10 06:47:00 51°13.624 2°56.047 124 -999 50 9.6
2008-09-10 06:47:05 51°13.624 2°56.047 124 -999 8 9.5
2008-09-10 06:47:10 51°13.624 2°56.047 124 -999 167 9.5
2008-09-10 06:47:15 51°13.624 2°56.047 124 -999 220 9.5
2008-09-10 06:47:20 51°13.624 2°56.047 124 -999 13 9.5
2008-09-10 06:47:25 51°13.624 2°56.047 124 -999 315 9.5
2008-09-10 06:47:30 51°13.624 2°56.047 124 -999 215 9.6
2008-09-10 06:47:35 51°13.624 2°56.047 124 -999 6 9.5
2008-09-10 06:47:40 51°13.624 2°56.047 124 -999 250 9.6
2008-09-10 06:47:45 51°13.624 2°56.047 124 -999 351 9.6
2008-09-10 06:47:50 51°13.624 2°56.047 123.9 0.1 355 9.5
2008-09-10 06:47:55 51°13.624 2°56.047 123.8 -999 251 9.5
2008-09-10 06:48:00 51°13.624 2°56.047 123.7 -999 272 9.5
2008-09-10 06:48:05 51°13.624 2°56.047 123.6 0.1 319 9.5
2008-09-10 06:48:11 51°13.624 2°56.047 123.5 -999 237 9.5
2008-09-10 06:48:15 51°13.624 2°56.047 123.4 -999 116 9.6
2008-09-10 06:48:20 51°13.624 2°56.047 123.3 -999 54 9.6
2008-09-10 06:48:25 51°13.624 2°56.047 123.3 -999 -999 9.5
2008-09-10 06:48:30 51°13.624 2°56.047 123.3 -999 94 9.6
2008-09-10 06:48:35 51°13.625 2°56.047 123.3 -999 23 9.6
2008-09-10 06:48:40 51°13.625 2°56.047 123.3 -999 190 9.6
2008-09-10 06:48:45 51°13.625 2°56.047 123.3 -999 101 9.5
2008-09-10 06:48:50 51°13.625 2°56.047 123.5 0.1 164 9.5
2008-09-10 06:48:55 51°13.625 2°56.047 123.6 -999 173 9.6
2008-09-10 06:49:00 51°13.625 2°56.047 123.7 -999 215 9.6
2008-09-10 06:49:05 51°13.625 2°56.047 123.7 -999 303 9.6
2008-09-10 06:49:10 51°13.624 2°56.047 123.9 -999 198 9.5
2008-09-10 06:49:15 51°13.624 2°56.047 123.9 -999 188 9.6
2008-09-10 06:49:20 51°13.624 2°56.048 124 -999 160 9.6
2008-09-10 06:49:25 51°13.624 2°56.048 124 -999 113 9.6
2008-09-10 06:49:30 51°13.624 2°56.048 124 -999 172 9.6
2008-09-10 06:49:35 51°13.624 2°56.048 124 0.1 91 9.5
2008-09-10 06:49:40 51°13.624 2°56.048 124 -999 70 9.6
2008-09-10 06:49:45 51°13.624 2°56.048 123.9 -999 38 9.6
2008-09-10 06:49:50 51°13.624 2°56.048 123.8 -999 148 9.6
2008-09-10 06:49:55 51°13.624 2°56.048 123.7 -999 320 9.6
2008-09-10 06:50:00 51°13.624 2°56.048 123.7 -999 247 9.7
2008-09-10 06:50:05 51°13.624 2°56.048 123.7 -999 283 9.6
2008-09-10 06:50:10 51°13.624 2°56.048 123.7 -999 8 9.6
2008-09-10 06:50:15 51°13.624 2°56.048 123.7 -999 41 9.5
2008-09-10 06:50:20 51°13.624 2°56.048 123.7 -999 12 9.6
2008-09-10 06:50:25 51°13.624 2°56.048 123.8 -999 129 9.6
2008-09-10 06:50:31 51°13.624 2°56.048 123.9 -999 154 9.6
2008-09-10 06:50:35 51°13.624 2°56.048 124 -999 47 9.6
2008-09-10 06:50:40 51°13.624 2°56.048 124 -999 162 9.6
2008-09-10 06:50:45 51°13.624 2°56.048 124 -999 98 9.6
2008-09-10 06:50:50 51°13.624 2°56.048 124 0.1 199 9.6
2008-09-10 06:50:55 51°13.624 2°56.048 124 -999 1 9.6
2008-09-10 06:51:00 51°13.624 2°56.048 124 -999 31 9.6
2008-09-10 06:51:05 51°13.624 2°56.048 124 -999 202 9.6
2008-09-10 06:51:10 51°13.624 2°56.048 123.9 -999 346 9.6
2008-09-10 06:51:15 51°13.624 2°56.048 123.9 -999 326 9.6
2008-09-10 06:51:20 51°13.624 2°56.048 123.8 -999 347 9.6
2008-09-10 06:51:25 51°13.624 2°56.048 123.7 -999 5 9.6
2008-09-10 06:51:30 51°13.624 2°56.048 123.7 -999 359 9.6
2008-09-10 06:51:35 51°13.624 2°56.048 123.7 -999 356 9.6
2008-09-10 06:51:40 51°13.624 2°56.048 123.7 -999 9 9.6
2008-09-10 06:51:45 51°13.624 2°56.048 123.7 -999 114 9.6
2008-09-10 06:51:50 51°13.624 2°56.048 123.7 -999 162 9.6
2008-09-10 06:51:55 51°13.624 2°56.048 123.7 -999 191 9.6
2008-09-10 06:52:00 51°13.624 2°56.048 123.7 -999 234 9.6
2008-09-10 06:52:05 51°13.624 2°56.048 123.7 -999 185 9.6
2008-09-10 06:52:10 51°13.624 2°56.048 123.7 -999 178 9.6
2008-09-10 06:52:15 51°13.624 2°56.048 123.7 -999 31 9.6
2008-09-10 06:52:20 51°13.624 2°56.048 123.7 -999 290 9.6
2008-09-10 06:52:25 51°13.624 2°56.048 123.7 -999 54 9.6
2008-09-10 06:52:31 51°13.625 2°56.048 123.6 -999 283 9.6
2008-09-10 06:52:35 51°13.625 2°56.048 123.6 -999 307 9.6
2008-09-10 06:52:40 51°13.625 2°56.048 123.6 -999 297 9.6
2008-09-10 06:52:45 51°13.625 2°56.048 123.6 -999 209 9.6
2008-09-10 06:52:50 51°13.625 2°56.048 123.7 -999 350 9.6
2008-09-10 06:52:55 51°13.624 2°56.048 123.8 -999 163 9.6
2008-09-10 06:53:00 51°13.624 2°56.048 123.9 0.1 180 9.6
2008-09-10 06:53:05 51°13.624 2°56.048 124 -999 182 9.6
2008-09-10 06:53:10 51°13.625 2°56.048 124 -999 291 9.6
2008-09-10 06:53:15 51°13.625 2°56.048 124 -999 52 9.6
2008-09-10 06:53:20 51°13.625 2°56.048 124 -999 358 9.7
2008-09-10 06:53:25 51°13.625 2°56.048 124 -999 4 9.6
2008-09-10 06:53:30 51°13.625 2°56.048 123.8 -999 1 9.6
2008-09-10 06:53:35 51°13.625 2°56.048 123.7 -999 310 9.6
2008-09-10 06:53:40 51°13.624 2°56.048 123.5 -999 220 9.6
2008-09-10 06:53:45 51°13.624 2°56.048 123.4 -999 242 9.6
2008-09-10 06:53:50 51°13.624 2°56.048 123.4 -999 209 9.6
2008-09-10 06:53:55 51°13.624 2°56.048 123.4 -999 265 9.6
2008-09-10 06:54:00 51°13.624 2°56.048 123.4 -999 41 9.6
2008-09-10 06:54:05 51°13.624 2°56.048 123.4 -999 295 9.6
2008-09-10 06:54:10 51°13.624 2°56.048 123.4 -999 358 9.6
2008-09-10 06:54:15 51°13.624 2°56.048 123.4 -999 126 9.6
2008-09-10 06:54:20 51°13.624 2°56.048 123.4 -999 186 9.6
2008-09-10 06:54:25 51°13.624 2°56.048 123.4 -999 175 9.6
2008-09-10 06:54:30 51°13.624 2°56.048 123.4 -999 336 9.6
2008-09-10 06:54:35 51°13.624 2°56.048 123.4 0.1 339 9.6
2008-09-10 06:54:40 51°13.624 2°56.048 123.4 -999 359 9.6
2008-09-10 06:54:45 51°13.624 2°56.048 123.3 -999 325 9.6
2008-09-10 06:54:50 51°13.623 2°56.047 123.3 -999 187 9.6
2008-09-10 06:54:55 51°13.623 2°56.047 123.3 -999 212 9.6
2008-09-10 06:55:00 51°13.623 2°56.047 123.3 -999 46 9.6
2008-09-10 06:55:05 51°13.623 2°56.048 123.3 0.1 29 9.6
2008-09-10 06:55:10 51°13.623 2°56.047 123.3 -999 129 -999
2008-09-10 06:55:15 51°13.623 2°56.047 123.3 -999 45 9.6
2008-09-10 06:55:20 51°13.623 2°56.047 123.3 -999 162 9.6
2008-09-10 06:55:25 51°13.623 2°56.047 123.3 -999 144 9.6
2008-09-10 06:55:30 51°13.623 2°56.047 123.3 -999 91 9.6
2008-09-10 06:55:35 51°13.623 2°56.047 123.3 -999 352 9.6
2008-09-10 06:55:40 51°13.623 2°56.047 123.3 -999 188 9.6
2008-09-10 06:55:45 51°13.623 2°56.047 123.3 -999 51 9.7
2008-09-10 06:55:50 51°13.623 2°56.047 123.3 -999 -999 9.6
2008-09-10 06:55:55 51°13.623 2°56.047 123.3 -999 173 9.6
2008-09-10 06:56:00 51°13.623 2°56.047 123.3 -999 258 9.6
2008-09-10 06:56:05 51°13.623 2°56.047 123.3 -999 322 9.6
2008-09-10 06:56:10 51°13.623 2°56.047 123.3 -999 356 9.6
2008-09-10 06:56:15 51°13.623 2°56.047 123.3 -999 337 9.6
2008-09-10 06:56:20 51°13.623 2°56.047 123.3 -999 173 9.6
2008-09-10 06:56:25 51°13.623 2°56.047 123.3 0.1 194 9.6
2008-09-10 06:56:30 51°13.623 2°56.047 123.3 -999 208 9.6
2008-09-10 06:56:35 51°13.623 2°56.047 123.3 -999 212 9.6
2008-09-10 06:56:40 51°13.623 2°56.047 123.4 -999 273 9.6
2008-09-10 06:56:46 51°13.623 2°56.047 123.6 -999 161 9.6
2008-09-10 06:56:50 51°13.623 2°56.047 123.7 -999 176 9.6
2008-09-10 06:56:55 51°13.623 2°56.047 123.7 -999 311 9.6
2008-09-10 06:57:00 51°13.623 2°56.047 123.7 -999 199 9.6
2008-09-10 06:57:05 51°13.623 2°56.047 123.7 -999 154 9.6
2008-09-10 06:57:10 51°13.623 2°56.047 123.7 0.1 124 9.6
2008-09-10 06:57:15 51°13.623 2°56.047 123.7 -999 21 9.6
2008-09-10 06:57:20 51°13.623 2°56.047 123.7 -999 259 9.6
2008-09-10 06:57:25 51°13.623 2°56.047 123.7 -999 260 9.6
2008-09-10 06:57:30 51°13.623 2°56.047 123.7 -999 351 9.6
2008-09-10 06:57:35 51°13.623 2°56.047 123.7 -999 42 9.6
2008-09-10 06:57:40 51°13.623 2°56.047 123.7 -999 17 9.6
2008-09-10 06:57:45 51°13.623 2°56.047 123.7 -999 41 9.6
2008-09-10 06:57:50 51°13.623 2°56.047 123.7 -999 294 9.6
2008-09-10 06:57:55 51°13.623 2°56.047 123.7 -999 179 9.6
2008-09-10 06:58:00 51°13.623 2°56.047 123.7 -999 330 9.6
2008-09-10 06:58:05 51°13.623 2°56.047 123.7 0.1 4 9.6
2008-09-10 06:58:10 51°13.623 2°56.047 123.7 -999 32 9.6
2008-09-10 06:58:15 51°13.623 2°56.047 123.7 -999 304 9.6
2008-09-10 06:58:20 51°13.622 2°56.047 123.7 -999 307 9.6
2008-09-10 06:58:25 51°13.622 2°56.047 123.7 -999 4 9.6
2008-09-10 06:58:30 51°13.622 2°56.047 123.6 -999 59 9.6
2008-09-10 06:58:35 51°13.622 2°56.047 123.5 -999 156 9.6
2008-09-10 06:58:40 51°13.623 2°56.047 123.4 -999 163 9.6
2008-09-10 06:58:45 51°13.623 2°56.047 123.4 -999 133 9.6
2008-09-10 06:58:50 51°13.623 2°56.047 123.4 -999 179 9.6
2008-09-10 06:58:55 51°13.623 2°56.047 123.4 -999 121 9.6
2008-09-10 06:59:00 51°13.623 2°56.047 123.5 -999 312 9.6
2008-09-10 06:59:05 51°13.623 2°56.047 123.6 -999 95 9.6
2008-09-10 06:59:10 51°13.623 2°56.047 123.7 -999 50 9.6
2008-09-10 06:59:15 51°13.623 2°56.048 123.9 -999 26 9.7
2008-09-10 06:59:20 51°13.623 2°56.048 124 -999 169 -999
2008-09-10 06:59:25 51°13.623 2°56.048 124.1 -999 166 9.7
2008-09-10 06:59:31 51°13.623 2°56.048 124.2 0.1 36 9.7
2008-09-10 06:59:35 51°13.623 2°56.048 124.2 -999 190 9.7
2008-09-10 06:59:40 51°13.623 2°56.048 124.2 -999 352 9.7
2008-09-10 06:59:45 51°13.623 2°56.048 124.2 -999 13 9.6
2008-09-10 06:59:50 51°13.623 2°56.048 124.3 -999 116 9.6
2008-09-10 06:59:55 51°13.623 2°56.048 124.3 -999 47 9.7
2008-09-10 07:00:00 51°13.623 2°56.048 124.3 -999 180 9.7
2008-09-10 07:00:05 51°13.623 2°56.048 124.3 0.1 24 9.6
2008-09-10 07:00:10 51°13.623 2°56.048 124.2 -999 205 9.7
2008-09-10 07:00:15 51°13.623 2°56.048 124.2 -999 301 9.6
2008-09-10 07:00:20 51°13.623 2°56.048 124.1 -999 225 9.6
2008-09-10 07:00:25 51°13.623 2°56.048 124.1 -999 186 -999
2008-09-10 07:00:30 51°13.623 2°56.048 124.1 -999 219 9.6
2008-09-10 07:00:35 51°13.623 2°56.048 124.1 -999 184 9.7
2008-09-10 07:00:40 51°13.623 2°56.048 124.1 -999 170 9.7
2008-09-10 07:00:45 51°13.623 2°56.048 124.1 -999 158 9.6
2008-09-10 07:00:50 51°13.623 2°56.048 124.1 -999 205 9.6
2008-09-10 07:00:55 51°13.623 2°56.048 124.1 -999 216 9.6
2008-09-10 07:01:00 51°13.623 2°56.048 124.1 -999 227 9.6
2008-09-10 07:01:05 51°13.623 2°56.048 124.1 -999 241 9.6
2008-09-10 07:01:10 51°13.623 2°56.048 124.1 -999 226 9.6
2008-09-10 07:01:15 51°13.623 2°56.048 124.1 -999 21 9.6
2008-09-10 07:01:20 51°13.623 2°56.048 124.1 0.1 336 9.6
2008-09-10 07:01:25 51°13.623 2°56.048 124.1 -999 180 9.6
2008-09-10 07:01:31 51°13.623 2°56.048 124.2 -999 174 9.6
2008-09-10 07:01:35 51°13.623 2°56.048 124.2 -999 204 9.6
2008-09-10 07:01:40 51°13.623 2°56.048 124.2 -999 214 9.6
2008-09-10 07:01:45 51°13.623 2°56.048 124.1 -999 18 9.6
2008-09-10 07:01:50 51°13.623 2°56.048 124 -999 195 9.6
2008-09-10 07:01:55 51°13.623 2°56.048 124 -999 6 9.6
2008-09-10 07:02:00 51°13.623 2°56.048 124 -999 256 9.6
2008-09-10 07:02:05 51°13.623 2°56.048 124 -999 233 9.6
2008-09-10 07:02:10 51°13.623 2°56.048 123.9 -999 205 9.6
2008-09-10 07:02:15 51°13.623 2°56.048 123.9 -999 200 9.6
2008-09-10 07:02:20 51°13.623 2°56.048 123.9 -999 246 9.7
2008-09-10 07:02:25 51°13.624 2°56.048 123.9 -999 336 9.6
2008-09-10 07:02:30 51°13.624 2°56.048 124 -999 327 9.6
2008-09-10 07:02:35 51°13.624 2°56.048 124 -999 100 9.7
2008-09-10 07:02:40 51°13.624 2°56.048 124 -999 302 9.6
2008-09-10 07:02:45 51°13.624 2°56.048 124 -999 309 -999
2008-09-10 07:02:50 51°13.624 2°56.048 124 -999 156 9.6
2008-09-10 07:02:55 51°13.624 2°56.048 124 -999 28 9.6
2008-09-10 07:03:00 51°13.624 2°56.048 124 0.1 5 9.6
2008-09-10 07:03:05 51°13.624 2°56.048 124 -999 45 9.7
2008-09-10 07:03:10 51°13.624 2°56.048 124 -999 18 9.6
2008-09-10 07:03:15 51°13.624 2°56.048 124 -999 152 9.6
2008-09-10 07:03:20 51°13.624 2°56.048 124 -999 343 9.6
2008-09-10 07:03:25 51°13.624 2°56.048 124 -999 348 9.6
2008-09-10 07:03:30 51°13.624 2°56.048 124 -999 283 9.6
2008-09-10 07:03:35 51°13.624 2°56.048 124 -999 187 -999
2008-09-10 07:03:40 51°13.624 2°56.048 124 -999 31 9.6
2008-09-10 07:03:45 51°13.624 2°56.048 124 -999 43 9.6
2008-09-10 07:03:51 51°13.624 2°56.048 124 -999 350 9.6
2008-09-10 07:03:55 51°13.624 2°56.048 124 -999 169 9.6
2008-09-10 07:04:00 51°13.624 2°56.048 123.9 -999 182 9.6
2008-09-10 07:04:05 51°13.624 2°56.048 123.9 -999 302 9.6
2008-09-10 07:04:11 51°13.624 2°56.048 123.8 0.1 348 9.6
2008-09-10 07:04:15 51°13.624 2°56.048 123.8 -999 207 9.6
2008-09-10 07:04:20 51°13.624 2°56.048 123.8 -999 196 9.6
2008-09-10 07:04:25 51°13.624 2°56.048 123.9 -999 358 9.6
2008-09-10 07:04:30 51°13.624 2°56.048 124 -999 1 9.7
2008-09-10 07:04:35 51°13.624 2°56.048 124 0.1 6 9.8
2008-09-10 07:04:40 51°13.624 2°56.048 124 -999 19 9.6
2008-09-10 07:04:45 51°13.624 2°56.048 124 -999 154 9.6
2008-09-10 07:04:50 51°13.624 2°56.048 124 -999 229 9.6
2008-09-10 07:04:55 51°13.624 2°56.048 124 -999 210 9.6
2008-09-10 07:05:00 51°13.624 2°56.048 124 -999 346 9.6
2008-09-10 07:05:05 51°13.624 2°56.048 124 -999 197 9.6
2008-09-10 07:05:10 51°13.624 2°56.048 124 -999 6 9.6
2008-09-10 07:05:15 51°13.624 2°56.048 124 -999 341 9.6
2008-09-10 07:05:20 51°13.624 2°56.048 124 -999 274 9.6
2008-09-10 07:05:25 51°13.624 2°56.048 124 -999 204 9.6
2008-09-10 07:05:30 51°13.624 2°56.048 124 0.1 191 9.6
2008-09-10 07:05:35 51°13.624 2°56.048 124 -999 324 9.6
2008-09-10 07:05:40 51°13.624 2°56.048 123.9 -999 338 9.6
2008-09-10 07:05:45 51°13.624 2°56.048 123.8 -999 320 9.6
2008-09-10 07:05:50 51°13.624 2°56.048 123.7 -999 322 9.6
2008-09-10 07:05:55 51°13.624 2°56.048 123.7 -999 282 9.6
2008-09-10 07:06:00 51°13.624 2°56.047 123.5 -999 53 9.6
2008-09-10 07:06:05 51°13.624 2°56.047 123.5 -999 215 9.6
2008-09-10 07:06:11 51°13.624 2°56.047 123.4 -999 202 9.6
2008-09-10 07:06:15 51°13.624 2°56.047 123.3 0.1 257 9.6
2008-09-10 07:06:20 51°13.624 2°56.047 123.3 -999 269 9.6
2008-09-10 07:06:25 51°13.624 2°56.047 123.3 -999 255 9.6
2008-09-10 07:06:30 51°13.624 2°56.047 123.3 -999 228 9.6
2008-09-10 07:06:35 51°13.624 2°56.047 123.3 -999 136 9.6
2008-09-10 07:06:40 51°13.624 2°56.047 123.3 -999 346 9.6
2008-09-10 07:06:45 51°13.624 2°56.047 123.3 -999 330 9.6
2008-09-10 07:06:50 51°13.624 2°56.047 123.3 -999 75 9.6
2008-09-10 07:06:55 51°13.624 2°56.047 123.3 -999 353 9.6
2008-09-10 07:07:00 51°13.624 2°56.047 123.3 -999 167 9.6
2008-09-10 07:07:05 51°13.624 2°56.047 123.3 -999 265 9.7
2008-09-10 07:07:10 51°13.624 2°56.047 123.3 -999 8 9.6
2008-09-10 07:07:15 51°13.624 2°56.047 123.4 -999 346 9.7
2008-09-10 07:07:20 51°13.624 2°56.047 123.4 -999 308 9.7
2008-09-10 07:07:25 51°13.624 2°56.047 123.4 -999 165 9.7
2008-09-10 07:07:30 51°13.624 2°56.047 123.4 -999 339 9.7
2008-09-10 07:07:35 51°13.624 2°56.047 123.4 -999 310 9.6
2008-09-10 07:07:40 51°13.624 2°56.047 123.5 -999 93 9.6
2008-09-10 07:07:45 51°13.624 2°56.047 123.6 -999 152 9.6
2008-09-10 07:07:50 51°13.624 2°56.048 123.6 0.1 151 9.7
2008-09-10 07:07:55 51°13.624 2°56.048 123.8 0.1 152 9.6
2008-09-10 07:08:00 51°13.624 2°56.048 124 -999 174 9.6
2008-09-10 07:08:06 51°13.624 2°56.047 124.1 -999 267 9.6
2008-09-10 07:08:10 51°13.624 2°56.047 124.4 -999 302 9.6
2008-09-10 07:08:15 51°13.624 2°56.047 124.4 0.1 344 9.6
2008-09-10 07:08:20 51°13.624 2°56.047 124.3 0.1 336 9.6
2008-09-10 07:08:25 51°13.624 2°56.047 123.9 0.1 347 9.6
2008-09-10 07:08:30 51°13.624 2°56.047 123.4 -999 277 9.6
2008-09-10 07:08:35 51°13.624 2°56.047 123 -999 303 9.6
2008-09-10 07:08:40 51°13.624 2°56.047 122.6 -999 265 9.6
2008-09-10 07:08:45 51°13.624 2°56.047 122.3 0.1 288 9.6
2008-09-10 07:08:51 51°13.624 2°56.047 122.1 0.1 323 9.6
2008-09-10 07:08:55 51°13.624 2°56.047 121.8 0.1 299 9.6
2008-09-10 07:09:00 51°13.624 2°56.047 121.5 -999 191 9.6
2008-09-10 07:09:05 51°13.624 2°56.047 121.1 -999 319 9.6
2008-09-10 07:09:10 51°13.624 2°56.047 121.1 -999 156 9.7
2008-09-10 07:09:15 51°13.624 2°56.047 121 -999 165 9.5
2008-09-10 07:09:20 51°13.624 2°56.047 121 -999 149 9.6
2008-09-10 07:09:25 51°13.624 2°56.047 121.1 0.1 179 9.6
2008-09-10 07:09:30 51°13.624 2°56.047 121.2 0.1 168 9.6
2008-09-10 07:09:35 51°13.624 2°56.047 121.5 0.1 151 9.6
2008-09-10 07:09:40 51°13.624 2°56.047 121.8 -999 94 9.6
2008-09-10 07:09:45 51°13.624 2°56.048 122.3 0.1 112 9.6
2008-09-10 07:09:50 51°13.624 2°56.048 122.7 0.1 144 9.7
2008-09-10 07:09:55 51°13.624 2°56.048 123.3 -999 115 9.6
2008-09-10 07:10:00 51°13.624 2°56.048 123.7 -999 53 9.6
2008-09-10 07:10:05 51°13.624 2°56.048 124.1 0.1 28 9.6
2008-09-10 07:10:10 51°13.624 2°56.048 124.6 0.1 200 9.7
2008-09-10 07:10:15 51°13.624 2°56.048 125 -999 86 9.7
2008-09-10 07:10:20 51°13.624 2°56.048 125 -999 3 9.7
2008-09-10 07:10:25 51°13.624 2°56.048 125 -999 288 9.6
2008-09-10 07:10:31 51°13.623 2°56.048 125 0.1 204 9.6
2008-09-10 07:10:35 51°13.624 2°56.048 125 -999 30 9.6
2008-09-10 07:10:40 51°13.624 2°56.048 125 -999 1 9.6
2008-09-10 07:10:45 51°13.623 2°56.048 124.9 -999 310 9.7
2008-09-10 07:10:51 51°13.623 2°56.048 124.8 -999 214 9.6
2008-09-10 07:10:55 51°13.623 2°56.048 124.6 -999 245 9.7
2008-09-10 07:11:00 51°13.624 2°56.048 124.4 -999 354 9.6
2008-09-10 07:11:05 51°13.624 2°56.048 124.1 -999 275 9.7
2008-09-10 07:11:10 51°13.624 2°56.048 123.7 -999 345 9.7
2008-09-10 07:11:15 51°13.624 2°56.048 123.3 -999 245 9.7
2008-09-10 07:11:20 51°13.624 2°56.048 122.9 0.1 355 9.6
2008-09-10 07:11:25 51°13.624 2°56.048 122.7 -999 335 9.6
2008-09-10 07:11:30 51°13.624 2°56.048 122.6 0.1 159 9.6
2008-09-10 07:11:35 51°13.624 2°56.048 122.6 -999 7 9.6
2008-09-10 07:11:40 51°13.624 2°56.048 122.7 -999 3 9.6
2008-09-10 07:11:45 51°13.624 2°56.048 123.2 -999 86 9.7
2008-09-10 07:11:50 51°13.624 2°56.048 123.4 -999 100 9.6
2008-09-10 07:11:55 51°13.624 2°56.048 123.5 -999 340 9.6
2008-09-10 07:12:00 51°13.623 2°56.048 123.4 -999 196 9.6
2008-09-10 07:12:05 51°13.623 2°56.048 123.3 -999 58 9.6
2008-09-10 07:12:10 51°13.623 2°56.048 123.2 -999 31 9.6
2008-09-10 07:12:15 51°13.623 2°56.048 123 -999 165 9.7
2008-09-10 07:12:20 51°13.623 2°56.048 122.8 -999 217 9.7
2008-09-10 07:12:25 51°13.623 2°56.048 122.6 -999 356 9.8
2008-09-10 07:12:30 51°13.623 2°56.048 122.6 -999 202 9.8
2008-09-10 07:12:35 51°13.623 2°56.048 122.5 -999 182 9.7
2008-09-10 07:12:40 51°13.623 2°56.048 122.5 -999 214 9.7
2008-09-10 07:12:45 51°13.623 2°56.048 122.5 -999 196 9.7
2008-09-10 07:12:50 51°13.623 2°56.048 122.6 -999 179 9.6
2008-09-10 07:12:55 51°13.623 2°56.048 122.6 -999 177 9.6
2008-09-10 07:13:00 51°13.623 2°56.048 122.7 -999 138 9.7
2008-09-10 07:13:05 51°13.623 2°56.048 122.9 -999 23 9.7
2008-09-10 07:13:10 51°13.623 2°56.048 123.1 -999 64 9.7
2008-09-10 07:13:15 51°13.623 2°56.048 123.3 -999 36 9.7
2008-09-10 07:13:20 51°13.623 2°56.048 123.3 -999 43 9.7
2008-09-10 07:13:25 51°13.623 2°56.048 123.3 -999 178 9.7
2008-09-10 07:13:30 51°13.623 2°56.048 123.3 -999 48 9.7
2008-09-10 07:13:35 51°13.623 2°56.048 123.3 -999 9 9.7
2008-09-10 07:13:40 51°13.623 2°56.048 123.2 -999 340 9.8
2008-09-10 07:13:45 51°13.623 2°56.048 123.2 -999 209 9.7
2008-09-10 07:13:50 51°13.623 2°56.048 123.2 -999 194 9.7
2008-09-10 07:13:55 51°13.623 2°56.048 123.3 -999 29 9.7
2008-09-10 07:14:00 51°13.623 2°56.048 123.7 -999 204 9.7
2008-09-10 07:14:05 51°13.623 2°56.048 123.9 -999 115 9.7
2008-09-10 07:14:10 51°13.623 2°56.048 124 -999 141 9.7
2008-09-10 07:14:15 51°13.623 2°56.048 124 -999 140 9.7
2008-09-10 07:14:20 51°13.623 2°56.048 124.2 -999 118 9.7
2008-09-10 07:14:25 51°13.623 2°56.048 124.5 -999 22 9.7
2008-09-10 07:14:30 51°13.623 2°56.048 124.7 -999 321 9.7
2008-09-10 07:14:35 51°13.623 2°56.048 124.7 -999 230 9.7
2008-09-10 07:14:40 51°13.623 2°56.048 124.7 -999 294 9.7
2008-09-10 07:14:45 51°13.623 2°56.048 124.7 -999 350 9.7
2008-09-10 07:14:50 51°13.623 2°56.048 124.7 -999 328 9.7
2008-09-10 07:14:55 51°13.623 2°56.048 124.6 -999 219 9.7
2008-09-10 07:15:00 51°13.623 2°56.048 124.4 -999 332 9.7
2008-09-10 07:15:06 51°13.623 2°56.048 124.2 -999 322 9.7
2008-09-10 07:15:11 51°13.623 2°56.048 124 -999 294 9.7
2008-09-10 07:15:15 51°13.623 2°56.048 123.9 -999 287 9.7
2008-09-10 07:15:20 51°13.623 2°56.048 123.6 -999 292 9.7
2008-09-10 07:15:25 51°13.623 2°56.048 123.3 -999 309 9.7
2008-09-10 07:15:30 51°13.623 2°56.048 122.9 -999 313 9.7
2008-09-10 07:15:35 51°13.623 2°56.048 122.5 -999 288 9.7
2008-09-10 07:15:40 51°13.623 2°56.048 121.9 -999 252 9.7
2008-09-10 07:15:45 51°13.623 2°56.048 121.8 -999 238 9.7
2008-09-10 07:15:50 51°13.623 2°56.048 121.6 -999 94 9.7
2008-09-10 07:15:55 51°13.623 2°56.048 121.4 -999 182 9.7
2008-09-10 07:16:00 51°13.623 2°56.048 121.2 -999 124 9.7
2008-09-10 07:16:05 51°13.623 2°56.048 121.2 -999 239 9.7
2008-09-10 07:16:10 51°13.623 2°56.048 121.2 -999 112 9.7
2008-09-10 07:16:15 51°13.623 2°56.048 121.2 -999 168 9.7
2008-09-10 07:16:20 51°13.623 2°56.048 121.3 -999 74 9.7
2008-09-10 07:16:25 51°13.623 2°56.048 121.5 -999 187 9.7
2008-09-10 07:16:30 51°13.623 2°56.048 121.7 -999 63 9.7
2008-09-10 07:16:35 51°13.623 2°56.048 121.8 0.1 180 9.7
2008-09-10 07:16:40 51°13.623 2°56.048 121.9 -999 102 9.7
2008-09-10 07:16:45 51°13.623 2°56.048 122.1 -999 158 9.7
2008-09-10 07:16:50 51°13.623 2°56.048 122.3 -999 156 9.7
2008-09-10 07:16:55 51°13.623 2°56.048 122.6 0.1 169 9.7
2008-09-10 07:17:00 51°13.623 2°56.048 122.8 0.1 133 9.7
2008-09-10 07:17:05 51°13.623 2°56.048 123 -999 146 9.8
2008-09-10 07:17:10 51°13.623 2°56.048 123 0.1 36 9.8
2008-09-10 07:17:15 51°13.623 2°56.048 123.2 -999 38 9.7
2008-09-10 07:17:20 51°13.623 2°56.048 123.2 -999 333 9.7
2008-09-10 07:17:25 51°13.623 2°56.048 123.2 -999 31 9.7
2008-09-10 07:17:30 51°13.623 2°56.048 123.3 -999 201 9.7
2008-09-10 07:17:35 51°13.623 2°56.048 123.3 -999 340 9.7
2008-09-10 07:17:40 51°13.623 2°56.048 123.3 -999 201 9.7
2008-09-10 07:17:45 51°13.623 2°56.048 123.2 -999 114 9.7
2008-09-10 07:17:51 51°13.623 2°56.048 123.2 -999 354 9.7
2008-09-10 07:17:55 51°13.623 2°56.048 123.2 -999 7 9.7
2008-09-10 07:18:00 51°13.623 2°56.048 123.2 -999 65 9.7
2008-09-10 07:18:05 51°13.623 2°56.048 123.1 -999 41 9.7
2008-09-10 07:18:10 51°13.623 2°56.048 123 -999 350 9.7
2008-09-10 07:18:15 51°13.623 2°56.048 122.9 -999 302 9.7
2008-09-10 07:18:20 51°13.623 2°56.048 122.8 -999 258 9.7
2008-09-10 07:18:25 51°13.623 2°56.048 122.6 0.1 299 9.7
2008-09-10 07:18:30 51°13.623 2°56.048 122.5 0.1 274 9.7
2008-09-10 07:18:35 51°13.623 2°56.048 122.2 -999 296 9.7
2008-09-10 07:18:40 51°13.623 2°56.048 122.1 -999 241 9.7
2008-09-10 07:18:45 51°13.623 2°56.048 121.8 -999 127 9.7
2008-09-10 07:18:50 51°13.623 2°56.048 121.5 -999 220 9.7
2008-09-10 07:18:55 51°13.623 2°56.048 121.4 -999 121 9.7
2008-09-10 07:19:00 51°13.623 2°56.048 121.4 -999 169 9.7
2008-09-10 07:19:05 51°13.623 2°56.048 121.4 -999 109 9.7
2008-09-10 07:19:10 51°13.623 2°56.048 121.5 0.1 152 9.7
2008-09-10 07:19:15 51°13.623 2°56.048 121.8 -999 145 9.7
2008-09-10 07:19:20 51°13.623 2°56.048 122.1 0.1 201 9.7
2008-09-10 07:19:26 51°13.623 2°56.048 122.6 0.1 215 9.7
2008-09-10 07:19:31 51°13.623 2°56.048 123.3 0.1 246 9.7
2008-09-10 07:19:35 51°13.623 2°56.048 123.9 -999 262 9.9
2008-09-10 07:19:40 51°13.623 2°56.047 124.5 0.1 292 9.7
2008-09-10 07:19:45 51°13.623 2°56.047 125 0.1 337 9.8
2008-09-10 07:19:51 51°13.623 2°56.047 125.5 0.1 320 9.7
2008-09-10 07:19:55 51°13.623 2°56.047 125.5 0.1 331 9.7
2008-09-10 07:20:00 51°13.624 2°56.047 125.4 0.2 339 9.7
2008-09-10 07:20:05 51°13.624 2°56.047 125 0.1 316 9.7
2008-09-10 07:20:10 51°13.624 2°56.047 124.5 0.1 308 9.7
2008-09-10 07:20:15 51°13.624 2°56.047 123.9 0.1 328 9.7
2008-09-10 07:20:20 51°13.624 2°56.047 123.2 0.1 275 9.7
2008-09-10 07:20:25 51°13.624 2°56.046 122.6 -999 273 9.7
2008-09-10 07:20:30 51°13.624 2°56.046 122.2 0.1 251 9.7
2008-09-10 07:20:35 51°13.624 2°56.046 121.9 -999 287 9.7
2008-09-10 07:20:40 51°13.624 2°56.046 121.8 0.1 321 9.7
2008-09-10 07:20:45 51°13.624 2°56.046 121.7 -999 327 9.7
2008-09-10 07:20:50 51°13.624 2°56.046 121.7 -999 269 9.7
2008-09-10 07:20:55 51°13.624 2°56.046 121.7 0.1 347 9.7
2008-09-10 07:21:00 51°13.624 2°56.046 121.9 0.1 298 -999
2008-09-10 07:21:05 51°13.624 2°56.046 122.2 0.1 344 9.6
2008-09-10 07:21:10 51°13.625 2°56.046 122.6 0.1 273 9.6
2008-09-10 07:21:15 51°13.625 2°56.045 123 0.1 303 9.7
2008-09-10 07:21:20 51°13.625 2°56.045 123.5 0.1 281 9.6
2008-09-10 07:21:25 51°13.624 2°56.045 124.1 0.2 221 9.6
2008-09-10 07:21:30 51°13.624 2°56.045 124.9 0.1 218 9.6
2008-09-10 07:21:35 51°13.624 2°56.045 125.7 0.1 225 9.6
2008-09-10 07:21:40 51°13.624 2°56.045 126.3 0.1 231 9.6
2008-09-10 07:21:45 51°13.624 2°56.045 126.9 0.1 238 9.6
2008-09-10 07:21:50 51°13.624 2°56.045 127.3 0.1 209 9.6
2008-09-10 07:21:55 51°13.624 2°56.045 127.6 -999 197 9.7
2008-09-10 07:22:00 51°13.624 2°56.045 127.8 -999 352 9.7
2008-09-10 07:22:05 51°13.624 2°56.045 127.9 -999 340 9.6
2008-09-10 07:22:10 51°13.624 2°56.044 128.1 -999 243 9.6
2008-09-10 07:22:15 51°13.624 2°56.044 128.1 -999 198 9.7
2008-09-10 07:22:20 51°13.624 2°56.044 128.2 -999 211 9.7
2008-09-10 07:22:25 51°13.624 2°56.044 128.3 -999 285 9.6
2008-09-10 07:22:30 51°13.624 2°56.044 128.4 0.1 212 9.6
2008-09-10 07:22:35 51°13.624 2°56.044 128.6 0.1 223 9.7
2008-09-10 07:22:40 51°13.624 2°56.044 128.9 0.1 240 9.7
2008-09-10 07:22:45 51°13.624 2°56.044 129.2 0.1 223 9.7
2008-09-10 07:22:50 51°13.624 2°56.044 129.6 0.1 250 9.7
2008-09-10 07:22:55 51°13.624 2°56.043 130.1 0.1 228 9.7
2008-09-10 07:23:00 51°13.624 2°56.043 130.5 0.1 218 9.7
2008-09-10 07:23:05 51°13.623 2°56.043 131.1 0.1 244 9.7
2008-09-10 07:23:10 51°13.623 2°56.043 131.4 0.1 242 9.7
2008-09-10 07:23:15 51°13.623 2°56.043 132 0.1 222 9.7
2008-09-10 07:23:20 51°13.623 2°56.043 132.6 0.1 232 9.7
2008-09-10 07:23:25 51°13.623 2°56.043 133.1 0.1 229 5.1
2008-09-10 07:23:30 51°13.623 2°56.042 133.7 0.1 243 4.8
2008-09-10 07:23:35 51°13.623 2°56.042 134.2 0.1 227 5
2008-09-10 07:23:40 51°13.623 2°56.042 134.7 0.1 226 4.9
2008-09-10 07:23:45 51°13.623 2°56.042 135.4 0.1 224 4.7
2008-09-10 07:23:50 51°13.623 2°56.042 135.9 0.1 234 9.6
2008-09-10 07:23:55 51°13.623 2°56.042 136.4 0.1 237 9.7
2008-09-10 07:24:00 51°13.623 2°56.041 137 0.1 229 9.5
2008-09-10 07:24:06 51°13.623 2°56.041 137.6 0.1 221 9.5
2008-09-10 07:24:10 51°13.623 2°56.041 138.1 0.1 228 9.6
2008-09-10 07:24:15 51°13.623 2°56.041 138.6 0.1 249 9.5
2008-09-10 07:24:20 51°13.622 2°56.041 139.1 -999 187 9.5
2008-09-10 07:24:25 51°13.622 2°56.041 139.4 0.2 187 9.5
2008-09-10 07:24:31 51°13.622 2°56.041 139.7 0.2 151 9.5
2008-09-10 07:24:35 51°13.621 2°56.042 140 0.5 155 9.5
2008-09-10 07:24:40 51°13.62 2°56.043 140.2 0.9 141 9.6
2008-09-10 07:24:45 51°13.619 2°56.044 140.6 1.3 144 9.9
2008-09-10 07:24:51 51°13.617 2°56.047 140.8 1.8 141 10
2008-09-10 07:24:55 51°13.614 2°56.05 140.9 2.3 141 9.9
2008-09-10 07:25:00 51°13.611 2°56.054 140.3 2.8 138 10.2
2008-09-10 07:25:05 51°13.608 2°56.059 139.5 3.2 140 10.6
2008-09-10 07:25:10 51°13.604 2°56.064 138.9 3.6 139 11
2008-09-10 07:25:15 51°13.601 2°56.069 138.6 3.7 139 11.8
2008-09-10 07:25:20 51°13.597 2°56.075 138.4 3.7 138 12.2
2008-09-10 07:25:25 51°13.593 2°56.081 138 3.9 139 12.2
2008-09-10 07:25:30 51°13.589 2°56.087 137.5 4 138 12.4
2008-09-10 07:25:35 51°13.584 2°56.093 137.2 4 138 12.6
2008-09-10 07:25:40 51°13.58 2°56.099 136.7 4.2 137 12.7
2008-09-10 07:25:45 51°13.576 2°56.106 136 4.2 137 12.7
2008-09-10 07:25:50 51°13.572 2°56.112 135.1 4.3 136 12.7
2008-09-10 07:25:55 51°13.568 2°56.119 134.2 4.3 135 12.7
2008-09-10 07:26:00 51°13.563 2°56.125 133.4 4.4 134 12.7
2008-09-10 07:26:05 51°13.559 2°56.132 132.6 4.3 132 12.7
2008-09-10 07:26:10 51°13.556 2°56.139 131.2 4.2 130 12.7
2008-09-10 07:26:15 51°13.553 2°56.147 127.8 4 122 12.8
2008-09-10 07:26:20 51°13.55 2°56.154 122.5 3.9 118 12.7
2008-09-10 07:26:26 51°13.548 2°56.164 116.4 4 111 12.7
2008-09-10 07:26:31 51°13.546 2°56.173 110.3 4 108 12.7
2008-09-10 07:26:35 51°13.545 2°56.18 105.9 4 104 12.7
2008-09-10 07:26:40 51°13.544 2°56.189 103 4.1 101 12.7
2008-09-10 07:26:45 51°13.543 2°56.198 100.8 4.1 99 12.7
2008-09-10 07:26:51 51°13.543 2°56.208 97.9 4 91 12.6
2008-09-10 07:26:55 51°13.543 2°56.214 92.5 3.7 86 12.3
2008-09-10 07:27:00 51°13.544 2°56.222 85.9 3.5 80 12.2
2008-09-10 07:27:05 51°13.545 2°56.229 80.1 3.3 77 12.2
2008-09-10 07:27:10 51°13.547 2°56.236 75.4 3 73 11.5
2008-09-10 07:27:15 51°13.548 2°56.241 72.1 2.6 70 11.8
2008-09-10 07:27:20 51°13.549 2°56.245 69.4 1.9 67 11.8
2008-09-10 07:27:25 51°13.55 2°56.247 65.6 1.3 62 11.8
2008-09-10 07:27:30 51°13.55 2°56.249 61.1 0.7 68 11.6
2008-09-10 07:27:35 51°13.55 2°56.249 57.1 0.2 82 11.3
2008-09-10 07:27:40 51°13.55 2°56.249 53.9 0.3 219 11.2
2008-09-10 07:27:45 51°13.549 2°56.248 51.6 0.7 226 11.5
2008-09-10 07:27:50 51°13.548 2°56.246 50 1 225 11.7
2008-09-10 07:27:55 51°13.548 2°56.245 48.5 0.9 228 11.8
2008-09-10 07:28:01 51°13.547 2°56.243 47.5 0.8 224 -999
2008-09-10 07:28:05 51°13.546 2°56.242 47.2 0.7 238 -999
2008-09-10 07:28:10 51°13.546 2°56.242 47.1 0.1 222 -999
2008-09-10 07:28:15 51°13.547 2°56.242 45.9 0.5 36 -999
2008-09-10 07:28:21 51°13.548 2°56.244 41.6 1 39 -999
2008-09-10 07:28:26 51°13.549 2°56.246 36.6 1.2 40 -999
2008-09-10 07:28:30 51°13.55 2°56.247 31.7 1 29 -999
2008-09-10 07:28:35 51°13.551 2°56.247 28.4 0.7 38 -999
2008-09-10 07:28:40 51°13.551 2°56.248 25.3 0.2 31 -999
2008-09-10 07:28:45 51°13.551 2°56.248 22.1 0.3 182 -999
2008-09-10 07:28:51 51°13.549 2°56.247 19.3 0.8 198 -999
2008-09-10 07:28:55 51°13.548 2°56.246 17.3 1.3 194 -999
2008-09-10 07:29:00 51°13.545 2°56.245 16.2 1.7 195 4.8
2008-09-10 07:29:05 51°13.543 2°56.244 15 1.6 192 -999
2008-09-10 07:29:11 51°13.541 2°56.244 14 1.5 191 -999
2008-09-10 07:29:15 51°13.539 2°56.243 13.9 1.3 191 -999
2008-09-10 07:29:20 51°13.538 2°56.243 14 0.9 192 -999
2008-09-10 07:29:25 51°13.537 2°56.243 13.2 0.3 188 -999
2008-09-10 07:29:30 51°13.538 2°56.243 10.6 0.4 12 -999
2008-09-10 07:29:36 51°13.54 2°56.243 5.8 1.1 1 -999
2008-09-10 07:29:41 51°13.542 2°56.244 359.9 1.6 5 -999
2008-09-10 07:29:45 51°13.544 2°56.243 353.3 1.5 351 11.7
2008-09-10 07:29:50 51°13.545 2°56.243 349.8 1.1 3 -999
2008-09-10 07:29:56 51°13.546 2°56.243 346.1 0.5 5 -999
2008-09-10 07:30:01 51°13.546 2°56.244 342.7 0.3 88 -999
2008-09-10 07:30:06 51°13.545 2°56.245 340.4 0.6 142 11.8
2008-09-10 07:30:10 51°13.544 2°56.246 338.1 1 142 11.9
2008-09-10 07:30:15 51°13.542 2°56.247 336.9 1.4 149 11.9
2008-09-10 07:30:20 51°13.541 2°56.25 335.8 1.7 148 11.8
2008-09-10 07:30:26 51°13.538 2°56.252 335.1 1.3 149 -999
2008-09-10 07:30:30 51°13.536 2°56.254 334.3 1.8 149 -999
2008-09-10 07:30:35 51°13.534 2°56.256 334.1 1.9 148 -999
2008-09-10 07:30:40 51°13.532 2°56.258 333.9 2 149 -999
2008-09-10 07:30:46 51°13.529 2°56.261 333.8 2 150 -999
2008-09-10 07:30:50 51°13.527 2°56.262 333.6 1.9 150 -999
2008-09-10 07:30:55 51°13.525 2°56.265 333.6 1.8 150 -999
2008-09-10 07:31:00 51°13.523 2°56.266 333.8 1.5 150 -999
2008-09-10 07:31:05 51°13.522 2°56.267 334 0.6 141 -999
2008-09-10 07:31:11 51°13.523 2°56.266 332.2 0.4 331 -999
2008-09-10 07:31:15 51°13.524 2°56.265 326.5 1.2 321 -999
2008-09-10 07:31:20 51°13.526 2°56.262 322.8 2 315 12.1
2008-09-10 07:31:25 51°13.529 2°56.258 316.8 2.5 308 12.2
2008-09-10 07:31:30 51°13.531 2°56.252 308.8 2.7 306 5.1
2008-09-10 07:31:35 51°13.533 2°56.247 302.7 2.9 302 12.5
2008-09-10 07:31:40 51°13.535 2°56.24 298.3 3.1 300 12.5
2008-09-10 07:31:45 51°13.537 2°56.234 296.5 3.3 299 12.5
2008-09-10 07:31:50 51°13.539 2°56.227 295.3 3.5 297 12.6
2008-09-10 07:31:55 51°13.542 2°56.22 294.6 3.7 297 12.1
2008-09-10 07:32:00 51°13.544 2°56.213 294.5 3.9 296 12.3
2008-09-10 07:32:05 51°13.547 2°56.205 294.4 4 296 12.3
2008-09-10 07:32:10 51°13.549 2°56.197 294.6 4.1 295 12.3
2008-09-10 07:32:15 51°13.551 2°56.188 294.3 4.2 294 12.4
2008-09-10 07:32:20 51°13.554 2°56.179 293.7 4.3 293 12.2
2008-09-10 07:32:25 51°13.556 2°56.17 293.1 4.4 293 12.2
2008-09-10 07:32:30 51°13.559 2°56.161 292.9 4.5 293 12
2008-09-10 07:32:35 51°13.561 2°56.152 292.6 4.6 294 12.4
2008-09-10 07:32:40 51°13.564 2°56.142 292.4 4.7 293 12.5
2008-09-10 07:32:46 51°13.567 2°56.13 292.3 4.8 294 12.6
2008-09-10 07:32:50 51°13.569 2°56.123 292.4 4.8 293 12.7
2008-09-10 07:32:55 51°13.572 2°56.113 292.7 4.9 293 12.7
2008-09-10 07:33:00 51°13.574 2°56.103 293.2 4.9 293 12.7
2008-09-10 07:33:05 51°13.577 2°56.093 293.8 4.9 294 12.7
2008-09-10 07:33:10 51°13.58 2°56.083 294.3 5 295 12.7
2008-09-10 07:33:15 51°13.583 2°56.073 295.2 5 296 12.7
2008-09-10 07:33:20 51°13.586 2°56.063 296.2 5 297 12.7
2008-09-10 07:33:25 51°13.589 2°56.053 296.8 5 296 12.7
2008-09-10 07:33:31 51°13.593 2°56.041 296.8 5.1 296 12.7
2008-09-10 07:33:35 51°13.596 2°56.033 296.8 5.1 297 12.7
2008-09-10 07:33:40 51°13.599 2°56.023 296.9 5.1 298 12.7
2008-09-10 07:33:45 51°13.602 2°56.013 297.4 5.1 298 12.7
2008-09-10 07:33:51 51°13.606 2°56.002 297.8 5.1 298 12.7
2008-09-10 07:33:55 51°13.609 2°55.994 298.2 5.1 299 12.7
2008-09-10 07:34:00 51°13.613 2°55.984 298.9 5.1 300 12.7
2008-09-10 07:34:05 51°13.616 2°55.974 299.3 5.2 300 12.7
2008-09-10 07:34:10 51°13.62 2°55.964 299.7 5.2 300 12.7
2008-09-10 07:34:15 51°13.623 2°55.954 300.4 5.2 301 12.8
2008-09-10 07:34:20 51°13.627 2°55.945 301.1 5.2 301 12.5
2008-09-10 07:34:25 51°13.631 2°55.935 301.8 5.2 302 12.1
2008-09-10 07:34:30 51°13.635 2°55.925 302.6 5.2 303 12.2
2008-09-10 07:34:35 51°13.639 2°55.916 303.2 5.2 303 12.2
2008-09-10 07:34:40 51°13.643 2°55.906 303.3 5.3 303 12.5
2008-09-10 07:34:45 51°13.647 2°55.896 303.5 5.2 304 12.2
2008-09-10 07:34:50 51°13.651 2°55.886 303.7 5.3 304 12.3
2008-09-10 07:34:55 51°13.655 2°55.876 304 5.6 304 11.9
2008-09-10 07:35:00 51°13.66 2°55.865 304.2 5.8 304 11.8
2008-09-10 07:35:05 51°13.665 2°55.854 304.1 6.2 304 11.6
2008-09-10 07:35:11 51°13.671 2°55.839 304.1 6.5 304 11.7
2008-09-10 07:35:15 51°13.675 2°55.829 304.5 6.8 304 11.5
2008-09-10 07:35:20 51°13.68 2°55.816 304.5 7.1 304 11
2008-09-10 07:35:26 51°13.687 2°55.801 304.4 7.3 306 11.2
2008-09-10 07:35:31 51°13.694 2°55.787 305.3 7.5 307 11.6
2008-09-10 07:35:35 51°13.699 2°55.777 306.4 7.6 308 12.7
2008-09-10 07:35:40 51°13.706 2°55.763 307.7 7.8 309 13.8
2008-09-10 07:35:46 51°13.714 2°55.747 309 7.9 310 14.2
2008-09-10 07:35:51 51°13.722 2°55.734 310.2 8 311 13.6
2008-09-10 07:35:55 51°13.728 2°55.724 311.3 8.1 313 13.1
2008-09-10 07:36:00 51°13.736 2°55.71 312.5 8.2 314 13
2008-09-10 07:36:05 51°13.744 2°55.698 314.1 8.2 317 12.5
2008-09-10 07:36:11 51°13.754 2°55.684 316.6 8.2 319 12.5
2008-09-10 07:36:15 51°13.762 2°55.675 319.5 8.2 322 13.1
2008-09-10 07:36:20 51°13.771 2°55.664 322.9 8.3 326 13.1
2008-09-10 07:36:25 51°13.781 2°55.655 326.3 8.3 329 13.1
2008-09-10 07:36:30 51°13.791 2°55.646 329.7 8.3 332 13.1
2008-09-10 07:36:35 51°13.802 2°55.639 333 8.3 335 13.1
2008-09-10 07:36:40 51°13.812 2°55.631 335.8 8.3 336 13
2008-09-10 07:36:45 51°13.823 2°55.624 337.4 8.4 337 13
2008-09-10 07:36:50 51°13.834 2°55.617 338.5 8.4 338 13
2008-09-10 07:36:55 51°13.845 2°55.61 339.1 8.4 338 13
2008-09-10 07:37:00 51°13.855 2°55.603 339.4 8.4 338 12.8
2008-09-10 07:37:05 51°13.866 2°55.596 339.1 8.5 338 12.7
2008-09-10 07:37:10 51°13.877 2°55.589 338.9 8.5 338 12.9
2008-09-10 07:37:15 51°13.888 2°55.582 338.6 8.6 338 12.7
2008-09-10 07:37:20 51°13.899 2°55.575 338.6 4.6 338 12.8
2008-09-10 07:37:26 51°13.912 2°55.566 338.7 8.1 337 13.1
2008-09-10 07:37:30 51°13.921 2°55.56 338.4 8.6 337 13.2
2008-09-10 07:37:35 51°13.932 2°55.553 337.7 8.6 337 13.1
2008-09-10 07:37:40 51°13.943 2°55.546 337.5 8.6 339 13.1
2008-09-10 07:37:46 51°13.956 2°55.537 338.4 8.6 338 13.1
2008-09-10 07:37:50 51°13.965 2°55.532 338.2 8.7 338 13.1
2008-09-10 07:37:55 51°13.976 2°55.524 337.3 8.7 335 13.1
2008-09-10 07:38:00 51°13.987 2°55.515 335.9 8.6 335 13.1
2008-09-10 07:38:05 51°13.998 2°55.507 335.9 8.7 335 13.1
2008-09-10 07:38:10 51°14.009 2°55.499 336.6 8.7 335 12.8
2008-09-10 07:38:15 51°14.02 2°55.491 336.4 7.7 335 12.7
2008-09-10 07:38:20 51°14.031 2°55.484 336.8 8.7 336 12.9
2008-09-10 07:38:25 51°14.042 2°55.476 337.3 8.7 336 12.7
2008-09-10 07:38:30 51°14.053 2°55.469 337.7 8.6 337 13.1
2008-09-10 07:38:35 51°14.064 2°55.46 337.4 8.6 335 13.1
2008-09-10 07:38:40 51°14.075 2°55.453 336.1 8.7 336 13.2
2008-09-10 07:38:45 51°14.085 2°55.444 335.8 8.7 335 13.1
2008-09-10 07:38:50 51°14.096 2°55.437 336.2 8.6 337 13.2
2008-09-10 07:38:55 51°14.107 2°55.429 336.7 8.5 335 13.2
2008-09-10 07:39:00 51°14.118 2°55.42 335.6 8.6 333 13.2
2008-09-10 07:39:05 51°14.128 2°55.412 334.5 8.6 333 13.2
2008-09-10 07:39:10 51°14.139 2°55.403 333.6 8.6 331 13.2
2008-09-10 07:39:15 51°14.149 2°55.393 332.3 8.5 330 13.1
2008-09-10 07:39:20 51°14.159 2°55.383 331.2 8.6 330 13.2
2008-09-10 07:39:25 51°14.169 2°55.373 330 8.6 328 13.1
2008-09-10 07:39:30 51°14.179 2°55.363 328.9 8.6 328 13.2
2008-09-10 07:39:35 51°14.189 2°55.353 328.5 8.6 327 13.1
2008-09-10 07:39:40 51°14.199 2°55.342 327.3 8.6 325 13
2008-09-10 07:39:45 51°14.209 2°55.331 325.9 8.5 324 13.2
2008-09-10 07:39:50 51°14.218 2°55.32 325.1 8.5 323 13
2008-09-10 07:39:55 51°14.227 2°55.308 324 8.5 321 13
2008-09-10 07:40:00 51°14.236 2°55.295 322.1 8.6 320 12.8
2008-09-10 07:40:06 51°14.247 2°55.28 320.5 8.5 318 12.8
2008-09-10 07:40:11 51°14.255 2°55.267 318.1 8.5 316 12.4
2008-09-10 07:40:15 51°14.262 2°55.256 316.2 8.6 315 12.5
2008-09-10 07:40:20 51°14.27 2°55.243 315.2 8.5 315 12.5
2008-09-10 07:40:25 51°14.278 2°55.229 315 8.5 314 12.4
2008-09-10 07:40:31 51°14.288 2°55.213 314.2 8.5 312 12.5
2008-09-10 07:40:35 51°14.294 2°55.202 313.3 8.6 313 12.5
2008-09-10 07:40:40 51°14.302 2°55.188 312.8 8.5 312 12.5
2008-09-10 07:40:45 51°14.31 2°55.173 312.1 8.5 311 12.7
2008-09-10 07:40:51 51°14.319 2°55.156 311.3 8.5 310 12.8
2008-09-10 07:40:55 51°14.324 2°55.144 309.7 8.5 308 12.8
2008-09-10 07:41:00 51°14.331 2°55.129 308.4 8.5 307 12.9
2008-09-10 07:41:05 51°14.338 2°55.114 307.1 8.5 306 13
2008-09-10 07:41:10 51°14.345 2°55.098 305.4 8.5 304 13.1
2008-09-10 07:41:15 51°14.352 2°55.083 304.2 8.5 304 13
2008-09-10 07:41:20 51°14.358 2°55.067 303.9 8.6 304 13.1
2008-09-10 07:41:25 51°14.365 2°55.051 303.9 8.6 305 13.1
2008-09-10 07:41:30 51°14.372 2°55.036 303.6 8.5 305 13.1
2008-09-10 07:41:35 51°14.379 2°55.021 303.4 8.5 307 12.7
2008-09-10 07:41:40 51°14.386 2°55.006 304 8.6 309 12.2
2008-09-10 07:41:46 51°14.395 2°54.989 305.2 8.5 310 12.2
2008-09-10 07:41:50 51°14.401 2°54.978 306 8.4 310 12.3
2008-09-10 07:41:55 51°14.409 2°54.963 305.5 8.3 309 12.3
2008-09-10 07:42:00 51°14.416 2°54.949 304.7 8.3 309 12.4
2008-09-10 07:42:06 51°14.424 2°54.932 304 8.3 308 12.5
2008-09-10 07:42:10 51°14.43 2°54.92 303.4 8.3 308 12.6
2008-09-10 07:42:15 51°14.437 2°54.906 303.2 8.3 308 12.7
2008-09-10 07:42:20 51°14.444 2°54.891 302.8 8.3 308 12.7
2008-09-10 07:42:25 51°14.451 2°54.877 302.6 8.2 307 12.7
2008-09-10 07:42:30 51°14.458 2°54.863 302.6 8.2 307 12.8
2008-09-10 07:42:35 51°14.465 2°54.848 302.5 8.2 306 12.7
2008-09-10 07:42:40 51°14.471 2°54.833 301.8 8.2 305 12.4
2008-09-10 07:42:45 51°14.478 2°54.819 301 8.2 306 12.6
2008-09-10 07:42:51 51°14.486 2°54.801 300.5 8.2 307 12.8
2008-09-10 07:42:55 51°14.492 2°54.79 301.2 8.2 309 12.8
2008-09-10 07:43:00 51°14.499 2°54.776 302.8 8.2 309 12.5
2008-09-10 07:43:05 51°14.506 2°54.762 303.7 8.2 310 12.5
2008-09-10 07:43:10 51°14.514 2°54.749 304.7 8.2 311 12.6
2008-09-10 07:43:15 51°14.521 2°54.735 305.4 8.2 311 12.6
2008-09-10 07:43:20 51°14.529 2°54.721 305.4 8.2 310 12.3
2008-09-10 07:43:25 51°14.536 2°54.707 304.7 8.2 310 12.3
2008-09-10 07:43:30 51°14.543 2°54.693 304.3 8.2 309 12.1
2008-09-10 07:43:35 51°14.55 2°54.679 304.1 8.2 310 12
2008-09-10 07:43:40 51°14.558 2°54.666 304.7 8.2 310 12
2008-09-10 07:43:45 51°14.565 2°54.652 304.9 8.2 310 12
2008-09-10 07:43:50 51°14.572 2°54.638 305 8.2 310 12
2008-09-10 07:43:55 51°14.58 2°54.624 304.9 8.2 311 12
2008-09-10 07:44:00 51°14.587 2°54.61 304.9 8.2 311 12
2008-09-10 07:44:05 51°14.594 2°54.596 304.9 8.2 310 11.9
2008-09-10 07:44:10 51°14.601 2°54.582 304.6 8.2 309 11.9
2008-09-10 07:44:15 51°14.608 2°54.568 303.7 8.2 308 11.9
2008-09-10 07:44:20 51°14.615 2°54.554 302.8 8.1 308 11.9
2008-09-10 07:44:26 51°14.623 2°54.536 302.4 8.1 307 11.9
2008-09-10 07:44:31 51°14.63 2°54.522 302.2 8.2 308 12
2008-09-10 07:44:35 51°14.636 2°54.511 302.4 8.2 308 11.9